Terminal Aerodrome Forecast
Issued by NWS Brownsville, TX

Home | Current Version | Previous Version | Text Only | Print | Product List | Glossary On
Versions: 1 2 3 4 5 6 7 8 9 10 11 12 13 14 15 16
000
FTUS44 KBRO 301120
TAFMFE
TAF
KMFE 301120Z 3012/0112 35007KT P6SM BKN100
     FM301600 02009G16KT P6SM FEW060
     FM010200 06003KT P6SM BKN250=

USA.gov is the U.S. government's official web portal to all federal, state and local government web resources and services.